sensor_id;sensor_type;location;lat;lon;timestamp;P1;durP1;ratioP1;P2;durP2;ratioP2
56824;SDS011;42705;50.326;18.772;2023-05-16T00:03:12;8.90;;;7.80;;
56824;SDS011;42705;50.326;18.772;2023-05-16T00:08:34;9.50;;;7.00;;
56824;SDS011;42705;50.326;18.772;2023-05-16T00:13:56;10.20;;;7.60;;
56824;SDS011;42705;50.326;18.772;2023-05-16T00:19:19;10.20;;;7.60;;
56824;SDS011;42705;50.326;18.772;2023-05-16T00:24:41;14.00;;;8.50;;
56824;SDS011;42705;50.326;18.772;2023-05-16T00:30:03;10.10;;;8.50;;
56824;SDS011;42705;50.326;18.772;2023-05-16T00:35:25;15.00;;;10.10;;
56824;SDS011;42705;50.326;18.772;2023-05-16T00:40:47;14.00;;;10.30;;
56824;SDS011;42705;50.326;18.772;2023-05-16T00:46:09;15.20;;;11.00;;
56824;SDS011;42705;50.326;18.772;2023-05-16T00:51:31;20.70;;;12.10;;
56824;SDS011;42705;50.326;18.772;2023-05-16T00:56:53;19.00;;;11.80;;
56824;SDS011;42705;50.326;18.772;2023-05-16T01:02:17;14.90;;;11.70;;
56824;SDS011;42705;50.326;18.772;2023-05-16T01:07:40;16.90;;;12.00;;
56824;SDS011;42705;50.326;18.772;2023-05-16T01:18:27;13.90;;;11.10;;
56824;SDS011;42705;50.326;18.772;2023-05-16T01:23:59;16.80;;;13.10;;
56824;SDS011;42705;50.326;18.772;2023-05-16T01:29:28;16.80;;;12.20;;
56824;SDS011;42705;50.326;18.772;2023-05-16T01:34:51;16.70;;;11.70;;
56824;SDS011;42705;50.326;18.772;2023-05-16T01:40:28;14.50;;;11.50;;
56824;SDS011;42705;50.326;18.772;2023-05-16T01:45:53;12.70;;;10.30;;
56824;SDS011;42705;50.326;18.772;2023-05-16T01:51:21;14.50;;;10.60;;
56824;SDS011;42705;50.326;18.772;2023-05-16T01:56:53;15.10;;;10.90;;
56824;SDS011;42705;50.326;18.772;2023-05-16T02:02:17;14.10;;;9.60;;
56824;SDS011;42705;50.326;18.772;2023-05-16T02:13:01;12.30;;;9.60;;
56824;SDS011;42705;50.326;18.772;2023-05-16T02:18:23;11.70;;;9.00;;
56824;SDS011;42705;50.326;18.772;2023-05-16T02:23:46;10.90;;;8.90;;
56824;SDS011;42705;50.326;18.772;2023-05-16T02:29:08;9.10;;;8.00;;
56824;SDS011;42705;50.326;18.772;2023-05-16T02:34:31;11.10;;;7.50;;
56824;SDS011;42705;50.326;18.772;2023-05-16T02:39:53;10.70;;;8.40;;
56824;SDS011;42705;50.326;18.772;2023-05-16T02:45:14;9.60;;;7.50;;
56824;SDS011;42705;50.326;18.772;2023-05-16T02:50:36;11.20;;;8.00;;
56824;SDS011;42705;50.326;18.772;2023-05-16T02:56:01;10.00;;;7.30;;
56824;SDS011;42705;50.326;18.772;2023-05-16T03:01:24;12.20;;;7.80;;
56824;SDS011;42705;50.326;18.772;2023-05-16T03:06:46;12.50;;;9.10;;
56824;SDS011;42705;50.326;18.772;2023-05-16T03:12:08;10.80;;;8.60;;
56824;SDS011;42705;50.326;18.772;2023-05-16T03:17:30;12.00;;;9.00;;
56824;SDS011;42705;50.326;18.772;2023-05-16T03:22:52;14.30;;;9.80;;
56824;SDS011;42705;50.326;18.772;2023-05-16T03:28:15;15.00;;;9.60;;
56824;SDS011;42705;50.326;18.772;2023-05-16T03:33:39;16.10;;;9.90;;
56824;SDS011;42705;50.326;18.772;2023-05-16T03:39:01;17.60;;;10.80;;
56824;SDS011;42705;50.326;18.772;2023-05-16T03:44:23;12.90;;;10.00;;
56824;SDS011;42705;50.326;18.772;2023-05-16T03:49:45;17.50;;;11.30;;
56824;SDS011;42705;50.326;18.772;2023-05-16T03:55:07;15.60;;;10.40;;
56824;SDS011;42705;50.326;18.772;2023-05-16T04:00:29;11.80;;;9.40;;
56824;SDS011;42705;50.326;18.772;2023-05-16T04:05:51;16.60;;;10.40;;
56824;SDS011;42705;50.326;18.772;2023-05-16T04:11:13;13.80;;;10.20;;
56824;SDS011;42705;50.326;18.772;2023-05-16T04:16:35;13.30;;;8.80;;
56824;SDS011;42705;50.326;18.772;2023-05-16T04:21:57;14.30;;;10.40;;
56824;SDS011;42705;50.326;18.772;2023-05-16T04:27:18;14.70;;;10.70;;
56824;SDS011;42705;50.326;18.772;2023-05-16T04:32:40;13.60;;;8.60;;
56824;SDS011;42705;50.326;18.772;2023-05-16T04:38:02;14.50;;;9.20;;
56824;SDS011;42705;50.326;18.772;2023-05-16T04:43:25;16.40;;;9.30;;
56824;SDS011;42705;50.326;18.772;2023-05-16T04:48:47;13.40;;;8.80;;
56824;SDS011;42705;50.326;18.772;2023-05-16T04:54:09;13.00;;;9.70;;
56824;SDS011;42705;50.326;18.772;2023-05-16T04:59:31;14.80;;;10.00;;
56824;SDS011;42705;50.326;18.772;2023-05-16T05:04:53;13.40;;;8.40;;
56824;SDS011;42705;50.326;18.772;2023-05-16T05:10:15;10.80;;;8.40;;
56824;SDS011;42705;50.326;18.772;2023-05-16T05:15:36;14.20;;;8.60;;
56824;SDS011;42705;50.326;18.772;2023-05-16T05:20:59;11.60;;;8.00;;
56824;SDS011;42705;50.326;18.772;2023-05-16T05:26:20;9.60;;;7.50;;
56824;SDS011;42705;50.326;18.772;2023-05-16T05:31:42;10.20;;;7.60;;
56824;SDS011;42705;50.326;18.772;2023-05-16T05:37:04;9.20;;;7.20;;
56824;SDS011;42705;50.326;18.772;2023-05-16T05:42:26;7.80;;;6.30;;
56824;SDS011;42705;50.326;18.772;2023-05-16T05:47:48;9.30;;;7.20;;
56824;SDS011;42705;50.326;18.772;2023-05-16T05:53:10;8.10;;;7.30;;
56824;SDS011;42705;50.326;18.772;2023-05-16T05:58:32;7.70;;;6.60;;
56824;SDS011;42705;50.326;18.772;2023-05-16T06:03:54;8.80;;;7.80;;
56824;SDS011;42705;50.326;18.772;2023-05-16T06:09:16;6.60;;;6.00;;
56824;SDS011;42705;50.326;18.772;2023-05-16T06:14:38;8.00;;;6.60;;
56824;SDS011;42705;50.326;18.772;2023-05-16T06:20:00;10.00;;;7.00;;
56824;SDS011;42705;50.326;18.772;2023-05-16T06:25:22;10.00;;;7.20;;
56824;SDS011;42705;50.326;18.772;2023-05-16T06:30:44;9.00;;;7.10;;
56824;SDS011;42705;50.326;18.772;2023-05-16T06:36:07;9.70;;;7.30;;
56824;SDS011;42705;50.326;18.772;2023-05-16T06:41:29;9.30;;;8.10;;
56824;SDS011;42705;50.326;18.772;2023-05-16T06:46:51;9.10;;;8.20;;
56824;SDS011;42705;50.326;18.772;2023-05-16T06:52:13;7.50;;;6.80;;
56824;SDS011;42705;50.326;18.772;2023-05-16T06:57:35;9.10;;;7.80;;
56824;SDS011;42705;50.326;18.772;2023-05-16T07:02:56;9.90;;;7.80;;
56824;SDS011;42705;50.326;18.772;2023-05-16T07:08:18;8.90;;;7.20;;
56824;SDS011;42705;50.326;18.772;2023-05-16T07:13:40;9.20;;;7.30;;
56824;SDS011;42705;50.326;18.772;2023-05-16T07:19:02;8.90;;;7.50;;
56824;SDS011;42705;50.326;18.772;2023-05-16T07:24:24;10.50;;;9.50;;
56824;SDS011;42705;50.326;18.772;2023-05-16T07:29:46;9.40;;;7.90;;
56824;SDS011;42705;50.326;18.772;2023-05-16T07:35:08;10.30;;;7.70;;
56824;SDS011;42705;50.326;18.772;2023-05-16T07:40:32;8.80;;;7.90;;
56824;SDS011;42705;50.326;18.772;2023-05-16T07:45:53;10.00;;;7.50;;
56824;SDS011;42705;50.326;18.772;2023-05-16T07:51:15;8.50;;;7.60;;
56824;SDS011;42705;50.326;18.772;2023-05-16T07:56:38;8.20;;;7.00;;
56824;SDS011;42705;50.326;18.772;2023-05-16T08:01:59;8.20;;;7.00;;
56824;SDS011;42705;50.326;18.772;2023-05-16T08:07:21;9.90;;;6.90;;
56824;SDS011;42705;50.326;18.772;2023-05-16T08:12:44;7.70;;;6.30;;
56824;SDS011;42705;50.326;18.772;2023-05-16T08:18:11;8.50;;;6.70;;
56824;SDS011;42705;50.326;18.772;2023-05-16T08:23:35;7.20;;;6.20;;
56824;SDS011;42705;50.326;18.772;2023-05-16T08:28:57;7.50;;;5.60;;
56824;SDS011;42705;50.326;18.772;2023-05-16T08:34:19;6.20;;;5.10;;
56824;SDS011;42705;50.326;18.772;2023-05-16T08:39:41;5.60;;;5.00;;
56824;SDS011;42705;50.326;18.772;2023-05-16T08:50:29;6.60;;;6.00;;
56824;SDS011;42705;50.326;18.772;2023-05-16T08:55:52;6.50;;;5.80;;
56824;SDS011;42705;50.326;18.772;2023-05-16T09:01:14;6.60;;;5.80;;
56824;SDS011;42705;50.326;18.772;2023-05-16T09:06:37;7.40;;;5.70;;
56824;SDS011;42705;50.326;18.772;2023-05-16T09:11:59;6.80;;;6.20;;
56824;SDS011;42705;50.326;18.772;2023-05-16T09:17:21;6.70;;;5.80;;
56824;SDS011;42705;50.326;18.772;2023-05-16T09:22:50;7.80;;;7.10;;
56824;SDS011;42705;50.326;18.772;2023-05-16T09:28:13;6.30;;;5.70;;
56824;SDS011;42705;50.326;18.772;2023-05-16T09:33:35;7.20;;;6.50;;
56824;SDS011;42705;50.326;18.772;2023-05-16T09:38:56;7.80;;;6.30;;
56824;SDS011;42705;50.326;18.772;2023-05-16T09:44:18;9.40;;;6.60;;
56824;SDS011;42705;50.326;18.772;2023-05-16T09:49:40;6.60;;;5.90;;
56824;SDS011;42705;50.326;18.772;2023-05-16T09:55:05;5.80;;;5.00;;
56824;SDS011;42705;50.326;18.772;2023-05-16T10:00:29;6.10;;;5.50;;
56824;SDS011;42705;50.326;18.772;2023-05-16T10:05:53;6.50;;;5.10;;
56824;SDS011;42705;50.326;18.772;2023-05-16T10:11:15;8.50;;;5.90;;
56824;SDS011;42705;50.326;18.772;2023-05-16T10:16:40;5.50;;;5.00;;
56824;SDS011;42705;50.326;18.772;2023-05-16T10:22:05;8.50;;;5.20;;
56824;SDS011;42705;50.326;18.772;2023-05-16T10:27:27;5.60;;;5.00;;
56824;SDS011;42705;50.326;18.772;2023-05-16T10:32:51;6.10;;;4.70;;
56824;SDS011;42705;50.326;18.772;2023-05-16T10:38:14;6.20;;;4.80;;
56824;SDS011;42705;50.326;18.772;2023-05-16T10:43:38;6.00;;;5.40;;
56824;SDS011;42705;50.326;18.772;2023-05-16T10:49:06;5.20;;;4.70;;
56824;SDS011;42705;50.326;18.772;2023-05-16T10:54:41;6.70;;;4.40;;
56824;SDS011;42705;50.326;18.772;2023-05-16T11:00:06;5.80;;;4.30;;
56824;SDS011;42705;50.326;18.772;2023-05-16T11:05:28;6.40;;;4.10;;
56824;SDS011;42705;50.326;18.772;2023-05-16T11:10:53;4.80;;;4.30;;
56824;SDS011;42705;50.326;18.772;2023-05-16T11:17:07;5.40;;;4.40;;
56824;SDS011;42705;50.326;18.772;2023-05-16T11:22:31;5.70;;;4.10;;
56824;SDS011;42705;50.326;18.772;2023-05-16T11:27:54;4.50;;;3.90;;
56824;SDS011;42705;50.326;18.772;2023-05-16T11:38:39;8.50;;;4.70;;
56824;SDS011;42705;50.326;18.772;2023-05-16T11:44:03;6.40;;;4.10;;
56824;SDS011;42705;50.326;18.772;2023-05-16T11:49:27;5.90;;;4.30;;
56824;SDS011;42705;50.326;18.772;2023-05-16T12:00:14;6.30;;;4.40;;
56824;SDS011;42705;50.326;18.772;2023-05-16T12:05:38;5.70;;;4.00;;
56824;SDS011;42705;50.326;18.772;2023-05-16T12:11:00;4.20;;;3.80;;
56824;SDS011;42705;50.326;18.772;2023-05-16T12:16:22;4.50;;;4.10;;
56824;SDS011;42705;50.326;18.772;2023-05-16T12:27:07;5.70;;;3.70;;
56824;SDS011;42705;50.326;18.772;2023-05-16T12:32:29;8.60;;;4.40;;
56824;SDS011;42705;50.326;18.772;2023-05-16T12:37:51;8.20;;;4.00;;
56824;SDS011;42705;50.326;18.772;2023-05-16T12:43:20;4.90;;;4.00;;
56824;SDS011;42705;50.326;18.772;2023-05-16T12:48:45;5.20;;;4.00;;
56824;SDS011;42705;50.326;18.772;2023-05-16T12:54:09;7.50;;;4.10;;
56824;SDS011;42705;50.326;18.772;2023-05-16T12:59:35;5.50;;;4.30;;
56824;SDS011;42705;50.326;18.772;2023-05-16T13:04:57;9.60;;;4.50;;
56824;SDS011;42705;50.326;18.772;2023-05-16T13:10:19;5.30;;;4.10;;
56824;SDS011;42705;50.326;18.772;2023-05-16T13:15:41;5.40;;;3.50;;
56824;SDS011;42705;50.326;18.772;2023-05-16T13:21:04;5.80;;;3.80;;
56824;SDS011;42705;50.326;18.772;2023-05-16T13:31:48;4.70;;;4.00;;
56824;SDS011;42705;50.326;18.772;2023-05-16T13:37:10;9.10;;;4.40;;
56824;SDS011;42705;50.326;18.772;2023-05-16T13:42:31;8.90;;;5.00;;
56824;SDS011;42705;50.326;18.772;2023-05-16T13:47:53;5.70;;;4.60;;
56824;SDS011;42705;50.326;18.772;2023-05-16T13:53:15;8.10;;;4.70;;
56824;SDS011;42705;50.326;18.772;2023-05-16T13:58:37;5.50;;;4.20;;
56824;SDS011;42705;50.326;18.772;2023-05-16T14:03:59;7.70;;;4.30;;
56824;SDS011;42705;50.326;18.772;2023-05-16T14:09:21;5.70;;;5.10;;
56824;SDS011;42705;50.326;18.772;2023-05-16T14:14:42;6.40;;;5.40;;
56824;SDS011;42705;50.326;18.772;2023-05-16T14:20:04;6.80;;;5.40;;
56824;SDS011;42705;50.326;18.772;2023-05-16T14:25:30;7.50;;;6.00;;
56824;SDS011;42705;50.326;18.772;2023-05-16T14:30:52;10.80;;;6.30;;
56824;SDS011;42705;50.326;18.772;2023-05-16T14:41:36;7.00;;;6.10;;
56824;SDS011;42705;50.326;18.772;2023-05-16T14:46:58;7.80;;;7.00;;
56824;SDS011;42705;50.326;18.772;2023-05-16T14:52:20;8.90;;;7.40;;
56824;SDS011;42705;50.326;18.772;2023-05-16T14:57:42;9.80;;;7.80;;
56824;SDS011;42705;50.326;18.772;2023-05-16T15:03:04;10.60;;;7.70;;
56824;SDS011;42705;50.326;18.772;2023-05-16T15:08:26;8.40;;;7.40;;
56824;SDS011;42705;50.326;18.772;2023-05-16T15:13:48;9.50;;;6.90;;
56824;SDS011;42705;50.326;18.772;2023-05-16T15:19:10;7.60;;;6.80;;
56824;SDS011;42705;50.326;18.772;2023-05-16T15:24:32;13.00;;;9.60;;
56824;SDS011;42705;50.326;18.772;2023-05-16T15:35:16;14.90;;;11.30;;
56824;SDS011;42705;50.326;18.772;2023-05-16T15:40:38;9.60;;;7.80;;
56824;SDS011;42705;50.326;18.772;2023-05-16T15:46:00;11.80;;;9.40;;
56824;SDS011;42705;50.326;18.772;2023-05-16T15:51:22;11.90;;;9.80;;
56824;SDS011;42705;50.326;18.772;2023-05-16T15:56:44;14.00;;;9.60;;
56824;SDS011;42705;50.326;18.772;2023-05-16T16:02:07;11.90;;;9.00;;
56824;SDS011;42705;50.326;18.772;2023-05-16T16:07:29;19.10;;;13.20;;
56824;SDS011;42705;50.326;18.772;2023-05-16T16:13:00;15.70;;;10.30;;
56824;SDS011;42705;50.326;18.772;2023-05-16T16:18:22;13.80;;;9.40;;
56824;SDS011;42705;50.326;18.772;2023-05-16T16:23:44;11.90;;;8.10;;
56824;SDS011;42705;50.326;18.772;2023-05-16T16:29:06;16.50;;;9.90;;
56824;SDS011;42705;50.326;18.772;2023-05-16T16:34:28;13.30;;;10.40;;
56824;SDS011;42705;50.326;18.772;2023-05-16T16:39:50;16.70;;;11.00;;
56824;SDS011;42705;50.326;18.772;2023-05-16T16:45:12;14.30;;;9.90;;
56824;SDS011;42705;50.326;18.772;2023-05-16T16:50:34;15.30;;;10.10;;
56824;SDS011;42705;50.326;18.772;2023-05-16T16:55:56;15.10;;;11.40;;
56824;SDS011;42705;50.326;18.772;2023-05-16T17:01:18;15.40;;;10.80;;
56824;SDS011;42705;50.326;18.772;2023-05-16T17:06:40;18.50;;;11.80;;
56824;SDS011;42705;50.326;18.772;2023-05-16T17:12:02;16.50;;;12.80;;
56824;SDS011;42705;50.326;18.772;2023-05-16T17:17:28;13.20;;;10.10;;
56824;SDS011;42705;50.326;18.772;2023-05-16T17:22:50;16.10;;;11.40;;
56824;SDS011;42705;50.326;18.772;2023-05-16T17:28:12;20.40;;;13.90;;
56824;SDS011;42705;50.326;18.772;2023-05-16T17:33:34;15.60;;;11.60;;
56824;SDS011;42705;50.326;18.772;2023-05-16T17:38:56;24.10;;;17.60;;
56824;SDS011;42705;50.326;18.772;2023-05-16T17:44:19;24.40;;;16.70;;
56824;SDS011;42705;50.326;18.772;2023-05-16T17:49:41;12.80;;;9.20;;
56824;SDS011;42705;50.326;18.772;2023-05-16T17:55:04;18.80;;;12.80;;
56824;SDS011;42705;50.326;18.772;2023-05-16T18:00:27;20.90;;;14.30;;
56824;SDS011;42705;50.326;18.772;2023-05-16T18:11:12;19.50;;;12.60;;
56824;SDS011;42705;50.326;18.772;2023-05-16T18:16:33;18.30;;;14.20;;
56824;SDS011;42705;50.326;18.772;2023-05-16T18:21:56;17.00;;;12.50;;
56824;SDS011;42705;50.326;18.772;2023-05-16T18:27:19;19.50;;;16.60;;
56824;SDS011;42705;50.326;18.772;2023-05-16T18:32:41;20.20;;;16.40;;
56824;SDS011;42705;50.326;18.772;2023-05-16T18:38:03;21.40;;;16.00;;
56824;SDS011;42705;50.326;18.772;2023-05-16T18:43:25;23.10;;;17.90;;
56824;SDS011;42705;50.326;18.772;2023-05-16T18:48:47;19.60;;;17.00;;
56824;SDS011;42705;50.326;18.772;2023-05-16T18:54:09;19.80;;;16.00;;
56824;SDS011;42705;50.326;18.772;2023-05-16T18:59:34;21.40;;;17.30;;
56824;SDS011;42705;50.326;18.772;2023-05-16T19:04:56;23.50;;;18.90;;
56824;SDS011;42705;50.326;18.772;2023-05-16T19:10:18;20.00;;;15.90;;
56824;SDS011;42705;50.326;18.772;2023-05-16T19:15:40;22.90;;;18.00;;
56824;SDS011;42705;50.326;18.772;2023-05-16T19:21:02;21.30;;;16.80;;
56824;SDS011;42705;50.326;18.772;2023-05-16T19:26:24;18.10;;;14.10;;
56824;SDS011;42705;50.326;18.772;2023-05-16T19:31:46;16.30;;;13.60;;
56824;SDS011;42705;50.326;18.772;2023-05-16T19:37:08;16.80;;;14.20;;
56824;SDS011;42705;50.326;18.772;2023-05-16T19:42:30;15.20;;;11.80;;
56824;SDS011;42705;50.326;18.772;2023-05-16T19:47:52;15.20;;;13.00;;
56824;SDS011;42705;50.326;18.772;2023-05-16T19:53:14;14.00;;;11.70;;
56824;SDS011;42705;50.326;18.772;2023-05-16T19:58:36;13.30;;;11.30;;
56824;SDS011;42705;50.326;18.772;2023-05-16T20:03:57;12.60;;;11.00;;
56824;SDS011;42705;50.326;18.772;2023-05-16T20:09:21;15.60;;;12.00;;
56824;SDS011;42705;50.326;18.772;2023-05-16T20:14:43;10.90;;;9.50;;
56824;SDS011;42705;50.326;18.772;2023-05-16T20:20:06;10.50;;;9.40;;
56824;SDS011;42705;50.326;18.772;2023-05-16T20:25:29;10.60;;;9.50;;
56824;SDS011;42705;50.326;18.772;2023-05-16T20:30:52;11.60;;;8.20;;
56824;SDS011;42705;50.326;18.772;2023-05-16T20:36:15;9.20;;;8.30;;
56824;SDS011;42705;50.326;18.772;2023-05-16T20:47:01;9.30;;;8.30;;
56824;SDS011;42705;50.326;18.772;2023-05-16T20:52:22;9.90;;;8.80;;
56824;SDS011;42705;50.326;18.772;2023-05-16T20:57:44;9.60;;;8.60;;
56824;SDS011;42705;50.326;18.772;2023-05-16T21:03:06;12.30;;;11.00;;
56824;SDS011;42705;50.326;18.772;2023-05-16T21:08:29;15.40;;;10.90;;
56824;SDS011;42705;50.326;18.772;2023-05-16T21:13:51;10.20;;;9.10;;
56824;SDS011;42705;50.326;18.772;2023-05-16T21:19:12;11.00;;;9.10;;
56824;SDS011;42705;50.326;18.772;2023-05-16T21:24:34;12.20;;;10.90;;
56824;SDS011;42705;50.326;18.772;2023-05-16T21:29:57;12.50;;;9.60;;
56824;SDS011;42705;50.326;18.772;2023-05-16T21:35:19;12.00;;;9.70;;
56824;SDS011;42705;50.326;18.772;2023-05-16T21:40:41;11.20;;;10.10;;
56824;SDS011;42705;50.326;18.772;2023-05-16T21:46:03;11.60;;;9.80;;
56824;SDS011;42705;50.326;18.772;2023-05-16T21:51:25;10.30;;;9.20;;
56824;SDS011;42705;50.326;18.772;2023-05-16T21:56:47;10.70;;;9.50;;
56824;SDS011;42705;50.326;18.772;2023-05-16T22:02:09;11.30;;;8.90;;
56824;SDS011;42705;50.326;18.772;2023-05-16T22:07:32;8.20;;;6.70;;
56824;SDS011;42705;50.326;18.772;2023-05-16T22:12:55;9.60;;;6.30;;
56824;SDS011;42705;50.326;18.772;2023-05-16T22:18:16;9.00;;;6.30;;
56824;SDS011;42705;50.326;18.772;2023-05-16T22:23:38;7.20;;;6.20;;
56824;SDS011;42705;50.326;18.772;2023-05-16T22:29:00;8.20;;;6.40;;
56824;SDS011;42705;50.326;18.772;2023-05-16T22:34:22;6.80;;;6.20;;
56824;SDS011;42705;50.326;18.772;2023-05-16T22:39:45;7.50;;;5.70;;
56824;SDS011;42705;50.326;18.772;2023-05-16T22:45:07;6.20;;;5.50;;
56824;SDS011;42705;50.326;18.772;2023-05-16T22:50:29;6.60;;;5.70;;
56824;SDS011;42705;50.326;18.772;2023-05-16T22:55:51;5.60;;;5.10;;
56824;SDS011;42705;50.326;18.772;2023-05-16T23:01:13;5.90;;;5.30;;
56824;SDS011;42705;50.326;18.772;2023-05-16T23:06:35;7.90;;;5.20;;
56824;SDS011;42705;50.326;18.772;2023-05-16T23:11:57;4.80;;;4.30;;
56824;SDS011;42705;50.326;18.772;2023-05-16T23:17:19;5.40;;;4.90;;
56824;SDS011;42705;50.326;18.772;2023-05-16T23:22:41;6.30;;;5.40;;
56824;SDS011;42705;50.326;18.772;2023-05-16T23:28:03;5.00;;;4.50;;
56824;SDS011;42705;50.326;18.772;2023-05-16T23:33:25;5.90;;;5.30;;
56824;SDS011;42705;50.326;18.772;2023-05-16T23:38:47;6.90;;;6.20;;
56824;SDS011;42705;50.326;18.772;2023-05-16T23:44:08;7.40;;;5.80;;
56824;SDS011;42705;50.326;18.772;2023-05-16T23:49:30;6.00;;;5.40;;
56824;SDS011;42705;50.326;18.772;2023-05-16T23:54:52;8.40;;;7.00;;
